X  Schlie├čen METAR Luftfahrt Wetterdaten     EDDC Dresden Airport
Temperatur
9°C Temperatur
8°C Taupunkt
94% Feuchtigkeit



Wind
11 KM/S
7 MPS
3 M/S
6 KTS



30°
NNO
Aktuelle Wetterlage

Leicht  Regenschauer Regen Leicht Regenschauer Regen
Luftdruck 1004.92 (hPa) - 29.68 (inHg)
Sichtweite 6.2 (Meile) - 10 (Km)
Flughafen
Flughafen Code EDDC

Position : Dresden Airport
Entfernung: 117 (Km)

Metar:
EDDC 012050Z AUTO 03006KT 350V060 9999 -SHRA BKN007 BKN018 OVC040 FEW///CB 09/08 Q1005 RESHRA

Zeit: 01-04-2023 20:50 CEST